메인 페이지
METAR-TAF:

METAR-TAF

공항 :

콜럼버스, 조지아, 미국

위도: 32-30-58N, 경도: 084-56-32W, 고도: 121m

현재 날씨관측

예보는 27분 전, 00:51시(UTC)에 발표되었습니다.
북북동4kt
온도 16°C
습도 48%
기압 1017 hPa
시정: 16.1km
고도 4300ft 상공 흐림

METAR: KCSG 170051Z 03004KT 10SM OVC043 16/05 A3004 RMK AO2 SLP171 T01610050

시각: 20:18 (01:18 UTC)

예보

예보는 14분 전, 01:04시(UTC)에 발표되었습니다.
예보 대상 시간: 17일 01시부터 17일 24시까지 (UTC)
북북동4kt
시정: 10km
고도 4000ft 상공 구름 많음
17일 0400시부터 (UTC)
북북동4kt
시정: 10km
고도 4000ft 상공 구름 보통
17일 1800시부터 (UTC)
여러 방향의 바람 3kt
시정: 10km
고도 25000ft 상공 구름 조금

TAF: KCSG 170104Z 1701/1724 03004KT P6SM BKN040 FM170400 03004KT P6SM SCT040 FM171800 VRB03KT P6SM FEW250

4,000개 이상의 공항 관측 자료 및 예보 (METAR 및 TAF 보고).

지도상에서 검색 가능한 기상관측소가 노란 점과 빨간 점으로 표시되어 있습니다.

기상관측소 명을 보려면 표시 위로 마우스를 이동하세요.

날씨 관측과 예보를 보려면 클릭하세요.

지도 변경 : 확대하려면 엑스 표시가 있는 녹색 버튼, 축소하려면 빼기 표시가 있는 녹색 버튼, 다음 페이지의 지도를 보려면 녹색 화살표를 클릭하세요.


METAR-TAF: